Paddy — WDF2429 — position and weather

sailwx.info

Track history (hours):
 
Tides and Currents Weather Stations Pressure Air Temp Water Temp Dewpoint Dewpoint Depression Visibility Wind Speed Wind Dir Waves Ship Positions

Paddy

Owner: Enterprise Marine Services, LLC, San Antonio, TX. More information available from US FCC via Universal Licensing System and Coast Guard Vessel Documentation Center.

Last reported at 2017-Nov-07 09:14 UTC. Time now 2017-Nov-22 16:42 UTC.
Position N 29°31' W 094°53'.
Warning: this ship's position is 15 days out of date.

Length 21 m; draft 3 m.

Type: . MMSI: 367003770.

Date/timePositionNaut miles runAvg speedWind from/ knotsBaromVisibWave heightAir tempDewpointWater temp
2017-Nov-07 09:14N 29°31' W 094°53'2 7.0
2017-Nov-07 09:00N 29°32' W 094°54'3 7.0
2017-Nov-07 08:30N 29°35' W 094°56'4 7.2
2017-Nov-07 07:59N 29°38' W 094°58'4 7.1
2017-Nov-07 07:28N 29°42' W 094°60'6 0.7
2017-Nov-06 22:50N 29°46' W 095°05'3 5.6
2017-Nov-06 22:20N 29°44' W 095°08'3 6.4
2017-Nov-06 21:53N 29°45' W 095°11'1 0.0
2017-Nov-05 15:15N 29°44' W 095°12'2 4.5
2017-Nov-05 14:48N 29°45' W 095°10'  
2017-Nov-03 09:53N 29°46' W 095°05'2 2.5
2017-Nov-03 09:12N 29°45' W 095°04'1 5.5
2017-Nov-03 09:00N 29°44' W 095°03'2 4.6
2017-Nov-03 08:30N 29°42' W 095°01'3 5.3
2017-Nov-03 08:00N 29°41' W 094°59'3 5.6
2017-Nov-03 07:30N 29°38' W 094°58'3 5.5
2017-Nov-03 07:00N 29°36' W 094°56'3 5.3
2017-Nov-03 06:30N 29°33' W 094°55'70 3.4
2017-Nov-02 09:58N 30°04' W 093°41'2 2.8
2017-Nov-02 09:22N 30°04' W 093°39'1 3.1
2017-Nov-02 08:59N 30°04' W 093°38'2 3.6
2017-Nov-02 08:30N 30°04' W 093°36'2 3.5
2017-Nov-02 08:01N 30°04' W 093°34'2 3.5
2017-Nov-02 07:30N 30°04' W 093°32'2 3.5
2017-Nov-02 07:00N 30°04' W 093°30'2 3.6
2017-Nov-02 06:30N 30°04' W 093°28'1 2.7
2017-Nov-02 06:00N 30°04' W 093°26'2 3.6
2017-Nov-02 05:31N 30°04' W 093°24'2 3.5
2017-Nov-02 05:00N 30°04' W 093°22'1 2.9
2017-Nov-02 04:30N 30°04' W 093°21'1 1.9
2017-Nov-02 04:00N 30°05' W 093°20'1 2.9
2017-Nov-02 03:30N 30°06' W 093°20'2 3.5
2017-Nov-02 03:01N 30°08' W 093°20'0 0.1
2017-Nov-02 02:30N 30°08' W 093°20'0 0.7
2017-Nov-02 02:00N 30°08' W 093°19'0 0.1
2017-Nov-02 01:30N 30°08' W 093°19'0 0.0
2017-Nov-02 01:00N 30°08' W 093°19'0 0.0
2017-Nov-02 00:30N 30°08' W 093°19'0 0.0
2017-Nov-02 00:00N 30°08' W 093°19'0 0.0
2017-Nov-01 23:30N 30°08' W 093°19'0 0.0
2017-Nov-01 23:00N 30°08' W 093°19'0 0.0
2017-Nov-01 22:30N 30°08' W 093°19'0 0.0
2017-Nov-01 22:00N 30°08' W 093°19'0 0.0
2017-Nov-01 21:30N 30°08' W 093°19'0 0.0
2017-Nov-01 21:00N 30°08' W 093°19'0 0.0
2017-Nov-01 20:30N 30°08' W 093°19'0 0.0
2017-Nov-01 20:00N 30°08' W 093°19'0 0.0
2017-Nov-01 19:30N 30°08' W 093°19'0 0.0
2017-Nov-01 19:00N 30°08' W 093°19'0 0.0
2017-Nov-01 18:30N 30°08' W 093°19'4 0.2
2017-Nov-01 02:01N 30°04' W 093°21'0 0.0
2017-Nov-01 01:30N 30°04' W 093°21'0 0.0
2017-Nov-01 01:00N 30°04' W 093°21'0 0.0
2017-Nov-01 00:31N 30°04' W 093°21'0 0.0
2017-Nov-01 00:01N 30°04' W 093°21'0 0.0
2017-Oct-31 23:30N 30°04' W 093°21'0 0.0
2017-Oct-31 23:01N 30°04' W 093°21'0 0.0
2017-Oct-31 22:30N 30°04' W 093°21'0 0.0
2017-Oct-31 22:01N 30°04' W 093°21'0 0.0
2017-Oct-31 21:31N 30°04' W 093°21'0 0.0
2017-Oct-31 21:00N 30°04' W 093°21'0 0.0
2017-Oct-31 20:30N 30°04' W 093°21'0 0.0
2017-Oct-31 20:01N 30°04' W 093°21'0 0.0
2017-Oct-31 19:31N 30°04' W 093°21'0 0.0
2017-Oct-31 19:01N 30°04' W 093°21'0 0.0
2017-Oct-31 18:31N 30°04' W 093°21'0 0.0
2017-Oct-31 18:00N 30°04' W 093°21'0 0.0
2017-Oct-31 17:31N 30°04' W 093°21'0 0.0
2017-Oct-31 17:00N 30°04' W 093°21'0 0.0
2017-Oct-31 16:31N 30°04' W 093°21'0 0.0
2017-Oct-31 16:01N 30°04' W 093°21'0 0.0
2017-Oct-31 15:31N 30°04' W 093°21'0 0.0
2017-Oct-31 15:01N 30°04' W 093°21'0 0.0
2017-Oct-31 14:31N 30°04' W 093°21'0 0.0
2017-Oct-31 14:01N 30°04' W 093°21'0 0.0
2017-Oct-31 13:31N 30°04' W 093°21'0 0.0
2017-Oct-31 13:01N 30°04' W 093°21'0 0.0
2017-Oct-31 12:31N 30°04' W 093°21'0 0.0
2017-Oct-31 12:01N 30°04' W 093°21'0 0.0
2017-Oct-31 11:31N 30°04' W 093°21'0 0.0
2017-Oct-31 11:01N 30°04' W 093°21'0 0.0
2017-Oct-31 10:31N 30°04' W 093°21'0 0.0
2017-Oct-31 10:01N 30°04' W 093°21'0 0.0
2017-Oct-31 09:31N 30°04' W 093°21'1 1.4
2017-Oct-31 09:00N 30°04' W 093°21'1 2.6
2017-Oct-31 08:31N 30°04' W 093°23'1 2.9
2017-Oct-31 08:01N 30°04' W 093°24'2 4.4
2017-Oct-31 07:30N 30°04' W 093°27'2 4.4
2017-Oct-31 07:00N 30°04' W 093°29'3 5.0
2017-Oct-31 06:30N 30°04' W 093°32'3 5.4
2017-Oct-31 06:00N 30°04' W 093°35'3 5.0
2017-Oct-31 05:25N 30°04' W 093°39'  
Track history (hours):
 
Tides and Currents Weather Stations Pressure Air Temp Water Temp Dewpoint Dewpoint Depression Visibility Wind Speed Wind Dir Waves Ship Positions

Paddy

Owner: Enterprise Marine Services, LLC, San Antonio, TX. More information available from US FCC via Universal Licensing System and Coast Guard Vessel Documentation Center.

Last reported at 2017-Nov-07 09:14 UTC. Time now 2017-Nov-22 16:42 UTC.
Position N 29°31' W 094°53'.
Warning: this ship's position is 15 days out of date.

Length 21 m; draft 3 m.

Type: . MMSI: 367003770.

Date/timePositionNaut miles runAvg speedWind from/ knotsBaromVisibWave heightAir tempDewpointWater temp
2017-Nov-07 09:14N 29°31' W 094°53'2 7.0
2017-Nov-07 09:00N 29°32' W 094°54'3 7.0
2017-Nov-07 08:30N 29°35' W 094°56'4 7.2
2017-Nov-07 07:59N 29°38' W 094°58'4 7.1
2017-Nov-07 07:28N 29°42' W 094°60'6 0.7
2017-Nov-06 22:50N 29°46' W 095°05'3 5.6
2017-Nov-06 22:20N 29°44' W 095°08'3 6.4
2017-Nov-06 21:53N 29°45' W 095°11'1 0.0
2017-Nov-05 15:15N 29°44' W 095°12'2 4.5
2017-Nov-05 14:48N 29°45' W 095°10'  
2017-Nov-03 09:53N 29°46' W 095°05'2 2.5
2017-Nov-03 09:12N 29°45' W 095°04'1 5.5
2017-Nov-03 09:00N 29°44' W 095°03'2 4.6
2017-Nov-03 08:30N 29°42' W 095°01'3 5.3
2017-Nov-03 08:00N 29°41' W 094°59'3 5.6
2017-Nov-03 07:30N 29°38' W 094°58'3 5.5
2017-Nov-03 07:00N 29°36' W 094°56'3 5.3
2017-Nov-03 06:30N 29°33' W 094°55'70 3.4
2017-Nov-02 09:58N 30°04' W 093°41'2 2.8
2017-Nov-02 09:22N 30°04' W 093°39'1 3.1
2017-Nov-02 08:59N 30°04' W 093°38'2 3.6
2017-Nov-02 08:30N 30°04' W 093°36'2 3.5
2017-Nov-02 08:01N 30°04' W 093°34'2 3.5
2017-Nov-02 07:30N 30°04' W 093°32'2 3.5
2017-Nov-02 07:00N 30°04' W 093°30'2 3.6
2017-Nov-02 06:30N 30°04' W 093°28'1 2.7
2017-Nov-02 06:00N 30°04' W 093°26'2 3.6
2017-Nov-02 05:31N 30°04' W 093°24'2 3.5
2017-Nov-02 05:00N 30°04' W 093°22'1 2.9
2017-Nov-02 04:30N 30°04' W 093°21'1 1.9
2017-Nov-02 04:00N 30°05' W 093°20'1 2.9
2017-Nov-02 03:30N 30°06' W 093°20'2 3.5
2017-Nov-02 03:01N 30°08' W 093°20'0 0.1
2017-Nov-02 02:30N 30°08' W 093°20'0 0.7
2017-Nov-02 02:00N 30°08' W 093°19'0 0.1
2017-Nov-02 01:30N 30°08' W 093°19'0 0.0
2017-Nov-02 01:00N 30°08' W 093°19'0 0.0
2017-Nov-02 00:30N 30°08' W 093°19'0 0.0
2017-Nov-02 00:00N 30°08' W 093°19'0 0.0
2017-Nov-01 23:30N 30°08' W 093°19'0 0.0
2017-Nov-01 23:00N 30°08' W 093°19'0 0.0
2017-Nov-01 22:30N 30°08' W 093°19'0 0.0
2017-Nov-01 22:00N 30°08' W 093°19'0 0.0
2017-Nov-01 21:30N 30°08' W 093°19'0 0.0
2017-Nov-01 21:00N 30°08' W 093°19'0 0.0
2017-Nov-01 20:30N 30°08' W 093°19'0 0.0
2017-Nov-01 20:00N 30°08' W 093°19'0 0.0
2017-Nov-01 19:30N 30°08' W 093°19'0 0.0
2017-Nov-01 19:00N 30°08' W 093°19'0 0.0
2017-Nov-01 18:30N 30°08' W 093°19'4 0.2
2017-Nov-01 02:01N 30°04' W 093°21'0 0.0
2017-Nov-01 01:30N 30°04' W 093°21'0 0.0
2017-Nov-01 01:00N 30°04' W 093°21'0 0.0
2017-Nov-01 00:31N 30°04' W 093°21'0 0.0
2017-Nov-01 00:01N 30°04' W 093°21'0 0.0
2017-Oct-31 23:30N 30°04' W 093°21'0 0.0
2017-Oct-31 23:01N 30°04' W 093°21'0 0.0
2017-Oct-31 22:30N 30°04' W 093°21'0 0.0
2017-Oct-31 22:01N 30°04' W 093°21'0 0.0
2017-Oct-31 21:31N 30°04' W 093°21'0 0.0
2017-Oct-31 21:00N 30°04' W 093°21'0 0.0
2017-Oct-31 20:30N 30°04' W 093°21'0 0.0
2017-Oct-31 20:01N 30°04' W 093°21'0 0.0
2017-Oct-31 19:31N 30°04' W 093°21'0 0.0
2017-Oct-31 19:01N 30°04' W 093°21'0 0.0
2017-Oct-31 18:31N 30°04' W 093°21'0 0.0
2017-Oct-31 18:00N 30°04' W 093°21'0 0.0
2017-Oct-31 17:31N 30°04' W 093°21'0 0.0
2017-Oct-31 17:00N 30°04' W 093°21'0 0.0
2017-Oct-31 16:31N 30°04' W 093°21'0 0.0
2017-Oct-31 16:01N 30°04' W 093°21'0 0.0
2017-Oct-31 15:31N 30°04' W 093°21'0 0.0
2017-Oct-31 15:01N 30°04' W 093°21'0 0.0
2017-Oct-31 14:31N 30°04' W 093°21'0 0.0
2017-Oct-31 14:01N 30°04' W 093°21'0 0.0
2017-Oct-31 13:31N 30°04' W 093°21'0 0.0
2017-Oct-31 13:01N 30°04' W 093°21'0 0.0
2017-Oct-31 12:31N 30°04' W 093°21'0 0.0
2017-Oct-31 12:01N 30°04' W 093°21'0 0.0
2017-Oct-31 11:31N 30°04' W 093°21'0 0.0
2017-Oct-31 11:01N 30°04' W 093°21'0 0.0
2017-Oct-31 10:31N 30°04' W 093°21'0 0.0
2017-Oct-31 10:01N 30°04' W 093°21'0 0.0
2017-Oct-31 09:31N 30°04' W 093°21'1 1.4
2017-Oct-31 09:00N 30°04' W 093°21'1 2.6
2017-Oct-31 08:31N 30°04' W 093°23'1 2.9
2017-Oct-31 08:01N 30°04' W 093°24'2 4.4
2017-Oct-31 07:30N 30°04' W 093°27'2 4.4
2017-Oct-31 07:00N 30°04' W 093°29'3 5.0
2017-Oct-31 06:30N 30°04' W 093°32'3 5.4
2017-Oct-31 06:00N 30°04' W 093°35'3 5.0
2017-Oct-31 05:25N 30°04' W 093°39'  

Dump ship's entire track history